sensor_id;sensor_type;location;lat;lon;timestamp;P1;durP1;ratioP1;P2;durP2;ratioP2
48813;SDS011;34634;44.108;3.074;2023-05-20T00:01:03;9.07;;;3.35;;
48813;SDS011;34634;44.108;3.074;2023-05-20T00:03:29;7.78;;;3.20;;
48813;SDS011;34634;44.108;3.074;2023-05-20T00:05:55;5.25;;;2.75;;
48813;SDS011;34634;44.108;3.074;2023-05-20T00:08:22;7.40;;;2.90;;
48813;SDS011;34634;44.108;3.074;2023-05-20T00:10:48;6.03;;;3.47;;
48813;SDS011;34634;44.108;3.074;2023-05-20T00:13:15;9.23;;;3.45;;
48813;SDS011;34634;44.108;3.074;2023-05-20T00:15:41;7.60;;;3.10;;
48813;SDS011;34634;44.108;3.074;2023-05-20T00:18:07;6.88;;;3.60;;
48813;SDS011;34634;44.108;3.074;2023-05-20T00:20:34;8.02;;;3.13;;
48813;SDS011;34634;44.108;3.074;2023-05-20T00:23:00;9.55;;;3.55;;
48813;SDS011;34634;44.108;3.074;2023-05-20T00:25:27;5.45;;;2.85;;
48813;SDS011;34634;44.108;3.074;2023-05-20T00:27:55;8.90;;;3.00;;
48813;SDS011;34634;44.108;3.074;2023-05-20T00:30:21;9.85;;;2.95;;
48813;SDS011;34634;44.108;3.074;2023-05-20T00:32:48;7.45;;;2.40;;
48813;SDS011;34634;44.108;3.074;2023-05-20T00:35:14;5.97;;;2.35;;
48813;SDS011;34634;44.108;3.074;2023-05-20T00:37:40;7.60;;;2.80;;
48813;SDS011;34634;44.108;3.074;2023-05-20T00:40:07;7.68;;;2.80;;
48813;SDS011;34634;44.108;3.074;2023-05-20T00:42:33;5.18;;;2.72;;
48813;SDS011;34634;44.108;3.074;2023-05-20T00:45:00;6.00;;;2.75;;
48813;SDS011;34634;44.108;3.074;2023-05-20T00:47:27;6.40;;;3.10;;
48813;SDS011;34634;44.108;3.074;2023-05-20T00:49:54;7.32;;;2.65;;
48813;SDS011;34634;44.108;3.074;2023-05-20T00:52:21;5.97;;;3.10;;
48813;SDS011;34634;44.108;3.074;2023-05-20T00:54:48;7.22;;;2.80;;
48813;SDS011;34634;44.108;3.074;2023-05-20T00:57:15;9.23;;;3.03;;
48813;SDS011;34634;44.108;3.074;2023-05-20T00:59:42;6.47;;;2.70;;
48813;SDS011;34634;44.108;3.074;2023-05-20T01:02:08;6.30;;;2.50;;
48813;SDS011;34634;44.108;3.074;2023-05-20T01:04:35;6.78;;;2.65;;
48813;SDS011;34634;44.108;3.074;2023-05-20T01:07:02;8.60;;;2.72;;
48813;SDS011;34634;44.108;3.074;2023-05-20T01:09:29;9.13;;;3.22;;
48813;SDS011;34634;44.108;3.074;2023-05-20T01:14:29;6.75;;;2.55;;
48813;SDS011;34634;44.108;3.074;2023-05-20T01:16:57;4.60;;;2.65;;
48813;SDS011;34634;44.108;3.074;2023-05-20T01:19:30;6.25;;;2.50;;
48813;SDS011;34634;44.108;3.074;2023-05-20T01:21:59;4.72;;;2.38;;
48813;SDS011;34634;44.108;3.074;2023-05-20T01:24:26;7.00;;;2.55;;
48813;SDS011;34634;44.108;3.074;2023-05-20T01:26:53;7.53;;;2.90;;
48813;SDS011;34634;44.108;3.074;2023-05-20T01:29:22;8.38;;;2.40;;
48813;SDS011;34634;44.108;3.074;2023-05-20T01:31:49;4.80;;;2.10;;
48813;SDS011;34634;44.108;3.074;2023-05-20T01:34:16;6.40;;;2.28;;
48813;SDS011;34634;44.108;3.074;2023-05-20T01:36:43;4.15;;;2.00;;
48813;SDS011;34634;44.108;3.074;2023-05-20T01:39:11;5.13;;;2.42;;
48813;SDS011;34634;44.108;3.074;2023-05-20T01:41:37;6.63;;;2.03;;
48813;SDS011;34634;44.108;3.074;2023-05-20T01:44:04;3.78;;;2.17;;
48813;SDS011;34634;44.108;3.074;2023-05-20T01:46:33;4.82;;;2.20;;
48813;SDS011;34634;44.108;3.074;2023-05-20T01:49:00;5.78;;;2.10;;
48813;SDS011;34634;44.108;3.074;2023-05-20T01:51:26;6.32;;;2.45;;
48813;SDS011;34634;44.108;3.074;2023-05-20T01:53:53;7.05;;;2.40;;
48813;SDS011;34634;44.108;3.074;2023-05-20T01:56:20;5.65;;;2.30;;
48813;SDS011;34634;44.108;3.074;2023-05-20T01:58:46;4.93;;;2.25;;
48813;SDS011;34634;44.108;3.074;2023-05-20T02:01:12;4.05;;;1.92;;
48813;SDS011;34634;44.108;3.074;2023-05-20T02:03:39;6.20;;;2.42;;
48813;SDS011;34634;44.108;3.074;2023-05-20T02:06:05;3.53;;;2.20;;
48813;SDS011;34634;44.108;3.074;2023-05-20T02:08:31;4.30;;;1.90;;
48813;SDS011;34634;44.108;3.074;2023-05-20T02:10:58;2.95;;;2.00;;
48813;SDS011;34634;44.108;3.074;2023-05-20T02:13:24;5.35;;;2.25;;
48813;SDS011;34634;44.108;3.074;2023-05-20T02:15:51;6.93;;;2.20;;
48813;SDS011;34634;44.108;3.074;2023-05-20T02:18:17;4.72;;;2.00;;
48813;SDS011;34634;44.108;3.074;2023-05-20T02:20:43;5.07;;;2.10;;
48813;SDS011;34634;44.108;3.074;2023-05-20T02:23:09;5.75;;;2.33;;
48813;SDS011;34634;44.108;3.074;2023-05-20T02:25:36;6.05;;;2.30;;
48813;SDS011;34634;44.108;3.074;2023-05-20T02:28:02;8.52;;;2.72;;
48813;SDS011;34634;44.108;3.074;2023-05-20T02:30:36;4.97;;;2.30;;
48813;SDS011;34634;44.108;3.074;2023-05-20T02:33:02;5.10;;;2.40;;
48813;SDS011;34634;44.108;3.074;2023-05-20T02:35:29;6.97;;;2.55;;
48813;SDS011;34634;44.108;3.074;2023-05-20T02:37:55;6.60;;;2.58;;
48813;SDS011;34634;44.108;3.074;2023-05-20T02:40:21;5.30;;;2.40;;
48813;SDS011;34634;44.108;3.074;2023-05-20T02:42:47;5.22;;;2.70;;
48813;SDS011;34634;44.108;3.074;2023-05-20T02:45:14;5.50;;;2.70;;
48813;SDS011;34634;44.108;3.074;2023-05-20T02:47:40;11.38;;;2.80;;
48813;SDS011;34634;44.108;3.074;2023-05-20T02:50:07;4.45;;;2.33;;
48813;SDS011;34634;44.108;3.074;2023-05-20T02:52:33;7.60;;;2.70;;
48813;SDS011;34634;44.108;3.074;2023-05-20T02:55:00;5.45;;;2.53;;
48813;SDS011;34634;44.108;3.074;2023-05-20T02:57:26;5.72;;;2.97;;
48813;SDS011;34634;44.108;3.074;2023-05-20T02:59:53;5.30;;;2.42;;
48813;SDS011;34634;44.108;3.074;2023-05-20T03:02:20;5.82;;;2.40;;
48813;SDS011;34634;44.108;3.074;2023-05-20T03:04:47;11.05;;;2.40;;
48813;SDS011;34634;44.108;3.074;2023-05-20T03:07:14;4.80;;;2.50;;
48813;SDS011;34634;44.108;3.074;2023-05-20T03:09:43;5.15;;;2.75;;
48813;SDS011;34634;44.108;3.074;2023-05-20T03:12:10;6.07;;;2.47;;
48813;SDS011;34634;44.108;3.074;2023-05-20T03:14:36;4.50;;;2.53;;
48813;SDS011;34634;44.108;3.074;2023-05-20T03:17:02;4.55;;;2.30;;
48813;SDS011;34634;44.108;3.074;2023-05-20T03:19:29;5.70;;;2.20;;
48813;SDS011;34634;44.108;3.074;2023-05-20T03:21:55;7.93;;;2.97;;
48813;SDS011;34634;44.108;3.074;2023-05-20T03:24:22;4.82;;;2.00;;
48813;SDS011;34634;44.108;3.074;2023-05-20T03:26:48;5.88;;;2.20;;
48813;SDS011;34634;44.108;3.074;2023-05-20T03:29:15;4.25;;;2.40;;
48813;SDS011;34634;44.108;3.074;2023-05-20T03:31:42;6.15;;;2.50;;
48813;SDS011;34634;44.108;3.074;2023-05-20T03:34:08;4.30;;;2.47;;
48813;SDS011;34634;44.108;3.074;2023-05-20T03:36:35;5.78;;;2.50;;
48813;SDS011;34634;44.108;3.074;2023-05-20T03:39:01;6.18;;;2.70;;
48813;SDS011;34634;44.108;3.074;2023-05-20T03:41:28;5.50;;;2.63;;
48813;SDS011;34634;44.108;3.074;2023-05-20T03:43:55;6.70;;;2.85;;
48813;SDS011;34634;44.108;3.074;2023-05-20T03:46:21;4.95;;;2.92;;
48813;SDS011;34634;44.108;3.074;2023-05-20T03:48:47;7.10;;;3.15;;
48813;SDS011;34634;44.108;3.074;2023-05-20T03:51:14;5.63;;;3.10;;
48813;SDS011;34634;44.108;3.074;2023-05-20T03:53:40;7.30;;;3.35;;
48813;SDS011;34634;44.108;3.074;2023-05-20T03:56:06;5.75;;;3.10;;
48813;SDS011;34634;44.108;3.074;2023-05-20T03:58:33;5.50;;;2.83;;
48813;SDS011;34634;44.108;3.074;2023-05-20T04:00:59;9.45;;;3.28;;
48813;SDS011;34634;44.108;3.074;2023-05-20T04:03:25;8.40;;;3.00;;
48813;SDS011;34634;44.108;3.074;2023-05-20T04:05:53;7.22;;;3.35;;
48813;SDS011;34634;44.108;3.074;2023-05-20T04:08:19;5.68;;;3.00;;
48813;SDS011;34634;44.108;3.074;2023-05-20T04:10:46;8.23;;;3.20;;
48813;SDS011;34634;44.108;3.074;2023-05-20T04:13:12;11.10;;;3.17;;
48813;SDS011;34634;44.108;3.074;2023-05-20T04:15:39;3.95;;;2.42;;
48813;SDS011;34634;44.108;3.074;2023-05-20T04:18:05;6.57;;;2.50;;
48813;SDS011;34634;44.108;3.074;2023-05-20T04:20:32;7.32;;;3.00;;
48813;SDS011;34634;44.108;3.074;2023-05-20T04:22:58;6.22;;;2.80;;
48813;SDS011;34634;44.108;3.074;2023-05-20T04:25:25;7.07;;;2.95;;
48813;SDS011;34634;44.108;3.074;2023-05-20T04:27:51;7.35;;;2.63;;
48813;SDS011;34634;44.108;3.074;2023-05-20T04:30:21;6.80;;;2.87;;
48813;SDS011;34634;44.108;3.074;2023-05-20T04:32:48;6.43;;;2.78;;
48813;SDS011;34634;44.108;3.074;2023-05-20T04:35:15;6.60;;;2.72;;
48813;SDS011;34634;44.108;3.074;2023-05-20T04:37:41;5.72;;;2.72;;
48813;SDS011;34634;44.108;3.074;2023-05-20T04:40:12;6.18;;;2.50;;
48813;SDS011;34634;44.108;3.074;2023-05-20T04:42:38;5.82;;;3.13;;
48813;SDS011;34634;44.108;3.074;2023-05-20T04:45:05;10.90;;;2.92;;
48813;SDS011;34634;44.108;3.074;2023-05-20T04:47:33;8.70;;;2.60;;
48813;SDS011;34634;44.108;3.074;2023-05-20T04:50:11;6.95;;;3.17;;
48813;SDS011;34634;44.108;3.074;2023-05-20T04:52:39;6.68;;;3.20;;
48813;SDS011;34634;44.108;3.074;2023-05-20T04:55:10;6.90;;;3.13;;
48813;SDS011;34634;44.108;3.074;2023-05-20T04:57:37;5.88;;;2.80;;
48813;SDS011;34634;44.108;3.074;2023-05-20T05:00:06;8.00;;;3.40;;
48813;SDS011;34634;44.108;3.074;2023-05-20T05:02:34;6.95;;;3.42;;
48813;SDS011;34634;44.108;3.074;2023-05-20T05:05:00;7.18;;;3.55;;
48813;SDS011;34634;44.108;3.074;2023-05-20T05:07:26;8.07;;;3.72;;
48813;SDS011;34634;44.108;3.074;2023-05-20T05:09:53;7.07;;;3.67;;
48813;SDS011;34634;44.108;3.074;2023-05-20T05:12:19;11.32;;;3.75;;
48813;SDS011;34634;44.108;3.074;2023-05-20T05:14:45;9.00;;;3.65;;
48813;SDS011;34634;44.108;3.074;2023-05-20T05:17:12;8.75;;;3.83;;
48813;SDS011;34634;44.108;3.074;2023-05-20T05:19:38;6.00;;;3.40;;
48813;SDS011;34634;44.108;3.074;2023-05-20T05:22:04;7.72;;;3.55;;
48813;SDS011;34634;44.108;3.074;2023-05-20T05:24:31;7.60;;;3.85;;
48813;SDS011;34634;44.108;3.074;2023-05-20T05:26:57;7.47;;;3.30;;
48813;SDS011;34634;44.108;3.074;2023-05-20T05:29:23;6.25;;;3.65;;
48813;SDS011;34634;44.108;3.074;2023-05-20T05:31:50;7.90;;;3.55;;
48813;SDS011;34634;44.108;3.074;2023-05-20T05:34:16;8.10;;;3.90;;
48813;SDS011;34634;44.108;3.074;2023-05-20T05:36:42;10.73;;;4.25;;
48813;SDS011;34634;44.108;3.074;2023-05-20T05:39:08;7.47;;;3.38;;
48813;SDS011;34634;44.108;3.074;2023-05-20T05:41:35;8.82;;;3.75;;
48813;SDS011;34634;44.108;3.074;2023-05-20T05:44:01;9.88;;;3.80;;
48813;SDS011;34634;44.108;3.074;2023-05-20T05:46:27;6.63;;;3.65;;
48813;SDS011;34634;44.108;3.074;2023-05-20T05:48:54;6.72;;;3.70;;
48813;SDS011;34634;44.108;3.074;2023-05-20T05:51:23;6.47;;;3.65;;
48813;SDS011;34634;44.108;3.074;2023-05-20T05:53:52;8.07;;;3.97;;
48813;SDS011;34634;44.108;3.074;2023-05-20T05:56:18;8.43;;;4.10;;
48813;SDS011;34634;44.108;3.074;2023-05-20T05:58:46;11.68;;;4.05;;
48813;SDS011;34634;44.108;3.074;2023-05-20T06:01:12;8.63;;;3.70;;
48813;SDS011;34634;44.108;3.074;2023-05-20T06:03:38;7.47;;;3.40;;
48813;SDS011;34634;44.108;3.074;2023-05-20T06:06:05;9.45;;;4.30;;
48813;SDS011;34634;44.108;3.074;2023-05-20T06:08:31;9.25;;;3.63;;
48813;SDS011;34634;44.108;3.074;2023-05-20T06:10:57;7.43;;;3.50;;
48813;SDS011;34634;44.108;3.074;2023-05-20T06:13:24;7.70;;;3.35;;
48813;SDS011;34634;44.108;3.074;2023-05-20T06:15:50;6.97;;;3.38;;
48813;SDS011;34634;44.108;3.074;2023-05-20T06:18:17;7.25;;;4.05;;
48813;SDS011;34634;44.108;3.074;2023-05-20T06:20:44;11.70;;;3.90;;
48813;SDS011;34634;44.108;3.074;2023-05-20T06:23:10;9.27;;;3.88;;
48813;SDS011;34634;44.108;3.074;2023-05-20T06:25:36;11.18;;;4.40;;
48813;SDS011;34634;44.108;3.074;2023-05-20T06:28:03;7.03;;;3.90;;
48813;SDS011;34634;44.108;3.074;2023-05-20T06:30:29;8.93;;;3.97;;
48813;SDS011;34634;44.108;3.074;2023-05-20T06:32:55;9.10;;;4.00;;
48813;SDS011;34634;44.108;3.074;2023-05-20T06:35:22;10.10;;;3.90;;
48813;SDS011;34634;44.108;3.074;2023-05-20T06:37:48;9.30;;;3.67;;
48813;SDS011;34634;44.108;3.074;2023-05-20T06:40:14;9.32;;;3.60;;
48813;SDS011;34634;44.108;3.074;2023-05-20T06:42:41;8.32;;;3.80;;
48813;SDS011;34634;44.108;3.074;2023-05-20T06:45:08;6.68;;;3.78;;
48813;SDS011;34634;44.108;3.074;2023-05-20T06:47:35;7.95;;;3.90;;
48813;SDS011;34634;44.108;3.074;2023-05-20T06:50:02;6.22;;;3.55;;
48813;SDS011;34634;44.108;3.074;2023-05-20T06:52:28;7.93;;;3.60;;
48813;SDS011;34634;44.108;3.074;2023-05-20T06:54:54;8.55;;;3.83;;
48813;SDS011;34634;44.108;3.074;2023-05-20T06:57:20;7.38;;;3.72;;
48813;SDS011;34634;44.108;3.074;2023-05-20T06:59:47;5.93;;;3.53;;
48813;SDS011;34634;44.108;3.074;2023-05-20T07:02:13;7.75;;;3.90;;
48813;SDS011;34634;44.108;3.074;2023-05-20T07:04:39;7.82;;;3.90;;
48813;SDS011;34634;44.108;3.074;2023-05-20T07:07:06;10.07;;;4.18;;
48813;SDS011;34634;44.108;3.074;2023-05-20T07:09:32;8.07;;;3.70;;
48813;SDS011;34634;44.108;3.074;2023-05-20T07:11:58;6.90;;;3.78;;
48813;SDS011;34634;44.108;3.074;2023-05-20T07:14:25;6.00;;;3.25;;
48813;SDS011;34634;44.108;3.074;2023-05-20T07:16:51;5.53;;;3.40;;
48813;SDS011;34634;44.108;3.074;2023-05-20T07:19:17;6.13;;;3.30;;
48813;SDS011;34634;44.108;3.074;2023-05-20T07:21:44;9.02;;;3.97;;
48813;SDS011;34634;44.108;3.074;2023-05-20T07:24:10;6.18;;;3.47;;
48813;SDS011;34634;44.108;3.074;2023-05-20T07:26:37;6.78;;;3.40;;
48813;SDS011;34634;44.108;3.074;2023-05-20T07:29:04;6.25;;;3.75;;
48813;SDS011;34634;44.108;3.074;2023-05-20T07:31:30;5.32;;;2.97;;
48813;SDS011;34634;44.108;3.074;2023-05-20T07:33:56;9.25;;;3.33;;
48813;SDS011;34634;44.108;3.074;2023-05-20T07:36:25;5.90;;;3.25;;
48813;SDS011;34634;44.108;3.074;2023-05-20T07:38:51;6.85;;;3.53;;
48813;SDS011;34634;44.108;3.074;2023-05-20T07:41:18;5.20;;;2.80;;
48813;SDS011;34634;44.108;3.074;2023-05-20T07:43:44;6.72;;;3.08;;
48813;SDS011;34634;44.108;3.074;2023-05-20T07:46:11;5.95;;;3.15;;
48813;SDS011;34634;44.108;3.074;2023-05-20T07:48:37;5.82;;;2.90;;
48813;SDS011;34634;44.108;3.074;2023-05-20T07:51:03;7.93;;;2.83;;
48813;SDS011;34634;44.108;3.074;2023-05-20T07:53:30;5.00;;;2.42;;
48813;SDS011;34634;44.108;3.074;2023-05-20T07:55:58;7.45;;;3.25;;
48813;SDS011;34634;44.108;3.074;2023-05-20T07:58:24;4.28;;;2.60;;
48813;SDS011;34634;44.108;3.074;2023-05-20T08:00:50;6.22;;;2.70;;
48813;SDS011;34634;44.108;3.074;2023-05-20T08:03:16;8.55;;;2.60;;
48813;SDS011;34634;44.108;3.074;2023-05-20T08:05:43;4.68;;;2.40;;
48813;SDS011;34634;44.108;3.074;2023-05-20T08:08:10;9.02;;;2.83;;
48813;SDS011;34634;44.108;3.074;2023-05-20T08:10:36;3.38;;;2.03;;
48813;SDS011;34634;44.108;3.074;2023-05-20T08:13:03;5.15;;;2.53;;
48813;SDS011;34634;44.108;3.074;2023-05-20T08:15:29;4.32;;;2.38;;
48813;SDS011;34634;44.108;3.074;2023-05-20T08:17:55;4.88;;;2.80;;
48813;SDS011;34634;44.108;3.074;2023-05-20T08:20:22;4.50;;;2.25;;
48813;SDS011;34634;44.108;3.074;2023-05-20T08:22:50;5.40;;;2.28;;
48813;SDS011;34634;44.108;3.074;2023-05-20T08:25:17;5.63;;;2.28;;
48813;SDS011;34634;44.108;3.074;2023-05-20T08:27:44;4.65;;;2.05;;
48813;SDS011;34634;44.108;3.074;2023-05-20T08:30:10;3.80;;;2.20;;
48813;SDS011;34634;44.108;3.074;2023-05-20T08:32:37;3.50;;;2.08;;
48813;SDS011;34634;44.108;3.074;2023-05-20T08:35:03;3.15;;;1.75;;
48813;SDS011;34634;44.108;3.074;2023-05-20T08:37:29;3.72;;;2.05;;
48813;SDS011;34634;44.108;3.074;2023-05-20T08:39:56;4.47;;;2.17;;
48813;SDS011;34634;44.108;3.074;2023-05-20T08:42:22;5.32;;;2.30;;
48813;SDS011;34634;44.108;3.074;2023-05-20T08:44:52;3.10;;;1.80;;
48813;SDS011;34634;44.108;3.074;2023-05-20T08:47:19;4.93;;;2.20;;
48813;SDS011;34634;44.108;3.074;2023-05-20T08:49:48;9.15;;;2.22;;
48813;SDS011;34634;44.108;3.074;2023-05-20T08:52:15;5.25;;;1.90;;
48813;SDS011;34634;44.108;3.074;2023-05-20T08:54:43;2.63;;;2.20;;
48813;SDS011;34634;44.108;3.074;2023-05-20T08:57:11;4.80;;;2.00;;
48813;SDS011;34634;44.108;3.074;2023-05-20T08:59:47;4.45;;;2.28;;
48813;SDS011;34634;44.108;3.074;2023-05-20T09:02:13;4.07;;;1.85;;
48813;SDS011;34634;44.108;3.074;2023-05-20T09:04:40;5.72;;;2.13;;
48813;SDS011;34634;44.108;3.074;2023-05-20T09:07:06;2.65;;;1.92;;
48813;SDS011;34634;44.108;3.074;2023-05-20T09:09:33;3.80;;;2.20;;
48813;SDS011;34634;44.108;3.074;2023-05-20T09:12:00;2.47;;;1.85;;
48813;SDS011;34634;44.108;3.074;2023-05-20T09:14:28;3.10;;;1.73;;
48813;SDS011;34634;44.108;3.074;2023-05-20T09:16:54;3.35;;;2.00;;
48813;SDS011;34634;44.108;3.074;2023-05-20T09:19:21;3.55;;;1.77;;
48813;SDS011;34634;44.108;3.074;2023-05-20T09:21:48;3.78;;;2.13;;
48813;SDS011;34634;44.108;3.074;2023-05-20T09:24:19;3.10;;;2.05;;
48813;SDS011;34634;44.108;3.074;2023-05-20T09:26:45;2.78;;;1.60;;
48813;SDS011;34634;44.108;3.074;2023-05-20T09:29:11;3.25;;;2.10;;
48813;SDS011;34634;44.108;3.074;2023-05-20T09:31:38;4.13;;;1.90;;
48813;SDS011;34634;44.108;3.074;2023-05-20T09:34:05;3.30;;;1.98;;
48813;SDS011;34634;44.108;3.074;2023-05-20T09:36:32;4.72;;;2.03;;
48813;SDS011;34634;44.108;3.074;2023-05-20T09:39:00;3.67;;;1.88;;
48813;SDS011;34634;44.108;3.074;2023-05-20T09:41:34;5.00;;;2.15;;
48813;SDS011;34634;44.108;3.074;2023-05-20T09:44:03;5.20;;;1.92;;
48813;SDS011;34634;44.108;3.074;2023-05-20T09:46:33;4.50;;;2.10;;
48813;SDS011;34634;44.108;3.074;2023-05-20T09:48:59;3.65;;;1.80;;
48813;SDS011;34634;44.108;3.074;2023-05-20T09:51:26;3.30;;;2.20;;
48813;SDS011;34634;44.108;3.074;2023-05-20T09:53:54;3.55;;;1.98;;
48813;SDS011;34634;44.108;3.074;2023-05-20T09:56:21;3.42;;;1.98;;
48813;SDS011;34634;44.108;3.074;2023-05-20T09:58:48;3.70;;;2.08;;
48813;SDS011;34634;44.108;3.074;2023-05-20T10:01:15;2.67;;;1.70;;
48813;SDS011;34634;44.108;3.074;2023-05-20T10:03:42;4.57;;;2.13;;
48813;SDS011;34634;44.108;3.074;2023-05-20T10:16:25;2.83;;;1.80;;
48813;SDS011;34634;44.108;3.074;2023-05-20T10:19:02;2.33;;;1.65;;
48813;SDS011;34634;44.108;3.074;2023-05-20T10:21:31;1.80;;;1.52;;
48813;SDS011;34634;44.108;3.074;2023-05-20T10:24:07;2.42;;;1.70;;
48813;SDS011;34634;44.108;3.074;2023-05-20T10:26:37;2.40;;;1.60;;
48813;SDS011;34634;44.108;3.074;2023-05-20T10:29:13;3.75;;;1.60;;
48813;SDS011;34634;44.108;3.074;2023-05-20T10:31:43;2.72;;;1.70;;
48813;SDS011;34634;44.108;3.074;2023-05-20T10:34:20;2.85;;;1.90;;
48813;SDS011;34634;44.108;3.074;2023-05-20T10:39:24;4.43;;;2.00;;
48813;SDS011;34634;44.108;3.074;2023-05-20T10:41:52;2.00;;;1.52;;
48813;SDS011;34634;44.108;3.074;2023-05-20T10:44:18;2.75;;;1.70;;
48813;SDS011;34634;44.108;3.074;2023-05-20T10:46:44;3.92;;;1.67;;
48813;SDS011;34634;44.108;3.074;2023-05-20T10:49:17;2.25;;;1.55;;
48813;SDS011;34634;44.108;3.074;2023-05-20T10:51:46;3.47;;;1.58;;
48813;SDS011;34634;44.108;3.074;2023-05-20T10:54:13;2.50;;;1.58;;
48813;SDS011;34634;44.108;3.074;2023-05-20T10:56:49;2.25;;;1.50;;
48813;SDS011;34634;44.108;3.074;2023-05-20T10:59:15;6.82;;;1.33;;
48813;SDS011;34634;44.108;3.074;2023-05-20T11:01:42;2.47;;;1.60;;
48813;SDS011;34634;44.108;3.074;2023-05-20T11:04:08;3.47;;;1.40;;
48813;SDS011;34634;44.108;3.074;2023-05-20T11:06:36;2.58;;;1.60;;
48813;SDS011;34634;44.108;3.074;2023-05-20T11:09:03;2.75;;;1.67;;
48813;SDS011;34634;44.108;3.074;2023-05-20T11:11:32;2.58;;;1.63;;
48813;SDS011;34634;44.108;3.074;2023-05-20T11:13:58;4.18;;;1.60;;
48813;SDS011;34634;44.108;3.074;2023-05-20T11:16:25;2.45;;;1.55;;
48813;SDS011;34634;44.108;3.074;2023-05-20T11:18:51;1.95;;;1.45;;
48813;SDS011;34634;44.108;3.074;2023-05-20T11:21:17;4.07;;;1.70;;
48813;SDS011;34634;44.108;3.074;2023-05-20T11:23:44;4.28;;;1.60;;
48813;SDS011;34634;44.108;3.074;2023-05-20T11:26:11;1.95;;;1.45;;
48813;SDS011;34634;44.108;3.074;2023-05-20T11:28:37;2.55;;;1.50;;
48813;SDS011;34634;44.108;3.074;2023-05-20T11:31:03;3.15;;;1.50;;
48813;SDS011;34634;44.108;3.074;2023-05-20T11:33:30;2.22;;;1.52;;
48813;SDS011;34634;44.108;3.074;2023-05-20T11:35:56;3.33;;;1.85;;
48813;SDS011;34634;44.108;3.074;2023-05-20T11:38:23;3.17;;;1.60;;
48813;SDS011;34634;44.108;3.074;2023-05-20T11:40:51;4.50;;;1.20;;
48813;SDS011;34634;44.108;3.074;2023-05-20T11:43:18;3.38;;;1.63;;
48813;SDS011;34634;44.108;3.074;2023-05-20T11:45:45;2.53;;;1.40;;
48813;SDS011;34634;44.108;3.074;2023-05-20T11:48:11;2.53;;;1.60;;
48813;SDS011;34634;44.108;3.074;2023-05-20T11:50:40;2.78;;;1.60;;
48813;SDS011;34634;44.108;3.074;2023-05-20T11:53:07;2.63;;;1.48;;
48813;SDS011;34634;44.108;3.074;2023-05-20T11:58:20;3.20;;;1.40;;
48813;SDS011;34634;44.108;3.074;2023-05-20T12:00:46;2.58;;;1.33;;
48813;SDS011;34634;44.108;3.074;2023-05-20T12:03:13;2.90;;;1.55;;
48813;SDS011;34634;44.108;3.074;2023-05-20T12:05:39;3.15;;;1.73;;
48813;SDS011;34634;44.108;3.074;2023-05-20T12:08:05;1.90;;;1.30;;
48813;SDS011;34634;44.108;3.074;2023-05-20T12:10:32;3.85;;;1.92;;
48813;SDS011;34634;44.108;3.074;2023-05-20T12:12:58;1.48;;;1.38;;
48813;SDS011;34634;44.108;3.074;2023-05-20T12:15:25;1.90;;;1.52;;
48813;SDS011;34634;44.108;3.074;2023-05-20T12:17:52;2.90;;;1.30;;
48813;SDS011;34634;44.108;3.074;2023-05-20T12:20:20;4.25;;;1.50;;
48813;SDS011;34634;44.108;3.074;2023-05-20T12:22:46;2.05;;;1.23;;
48813;SDS011;34634;44.108;3.074;2023-05-20T12:25:14;2.72;;;1.45;;
48813;SDS011;34634;44.108;3.074;2023-05-20T12:27:41;3.33;;;1.23;;
48813;SDS011;34634;44.108;3.074;2023-05-20T12:30:13;2.55;;;1.80;;
48813;SDS011;34634;44.108;3.074;2023-05-20T12:32:40;3.30;;;1.67;;
48813;SDS011;34634;44.108;3.074;2023-05-20T12:35:07;4.93;;;1.63;;
48813;SDS011;34634;44.108;3.074;2023-05-20T12:37:35;3.63;;;1.67;;
48813;SDS011;34634;44.108;3.074;2023-05-20T12:40:01;3.50;;;1.40;;
48813;SDS011;34634;44.108;3.074;2023-05-20T12:42:35;2.28;;;1.52;;
48813;SDS011;34634;44.108;3.074;2023-05-20T12:45:02;3.67;;;1.90;;
48813;SDS011;34634;44.108;3.074;2023-05-20T12:47:29;4.32;;;1.83;;
48813;SDS011;34634;44.108;3.074;2023-05-20T12:49:55;5.63;;;1.73;;
48813;SDS011;34634;44.108;3.074;2023-05-20T12:52:22;5.78;;;1.40;;
48813;SDS011;34634;44.108;3.074;2023-05-20T12:54:48;2.65;;;1.63;;
48813;SDS011;34634;44.108;3.074;2023-05-20T12:57:14;5.45;;;1.80;;
48813;SDS011;34634;44.108;3.074;2023-05-20T12:59:43;3.38;;;1.63;;
48813;SDS011;34634;44.108;3.074;2023-05-20T13:02:09;2.97;;;1.55;;
48813;SDS011;34634;44.108;3.074;2023-05-20T13:04:36;8.95;;;1.90;;
48813;SDS011;34634;44.108;3.074;2023-05-20T13:07:02;4.90;;;1.40;;
48813;SDS011;34634;44.108;3.074;2023-05-20T13:09:28;5.10;;;1.50;;
48813;SDS011;34634;44.108;3.074;2023-05-20T13:11:55;1.80;;;1.20;;
48813;SDS011;34634;44.108;3.074;2023-05-20T13:14:21;3.25;;;1.50;;
48813;SDS011;34634;44.108;3.074;2023-05-20T13:16:48;4.38;;;1.50;;
48813;SDS011;34634;44.108;3.074;2023-05-20T13:19:14;3.35;;;1.50;;
48813;SDS011;34634;44.108;3.074;2023-05-20T13:21:41;2.38;;;1.30;;
48813;SDS011;34634;44.108;3.074;2023-05-20T13:24:07;2.55;;;1.35;;
48813;SDS011;34634;44.108;3.074;2023-05-20T13:26:33;2.30;;;1.40;;
48813;SDS011;34634;44.108;3.074;2023-05-20T13:29:00;3.65;;;1.65;;
48813;SDS011;34634;44.108;3.074;2023-05-20T13:31:26;2.72;;;1.27;;
48813;SDS011;34634;44.108;3.074;2023-05-20T13:33:53;4.65;;;1.60;;
48813;SDS011;34634;44.108;3.074;2023-05-20T13:36:19;2.78;;;1.50;;
48813;SDS011;34634;44.108;3.074;2023-05-20T13:38:46;3.42;;;1.92;;
48813;SDS011;34634;44.108;3.074;2023-05-20T13:41:12;4.10;;;1.80;;
48813;SDS011;34634;44.108;3.074;2023-05-20T13:43:38;3.83;;;1.92;;
48813;SDS011;34634;44.108;3.074;2023-05-20T13:46:06;5.15;;;2.00;;
48813;SDS011;34634;44.108;3.074;2023-05-20T13:48:33;4.30;;;1.88;;
48813;SDS011;34634;44.108;3.074;2023-05-20T13:50:59;2.67;;;1.70;;
48813;SDS011;34634;44.108;3.074;2023-05-20T13:53:26;4.35;;;1.80;;
48813;SDS011;34634;44.108;3.074;2023-05-20T13:55:52;3.47;;;1.70;;
48813;SDS011;34634;44.108;3.074;2023-05-20T13:58:19;5.93;;;2.55;;
48813;SDS011;34634;44.108;3.074;2023-05-20T14:00:45;6.20;;;2.50;;
48813;SDS011;34634;44.108;3.074;2023-05-20T14:03:12;9.25;;;3.05;;
48813;SDS011;34634;44.108;3.074;2023-05-20T14:05:38;6.30;;;2.70;;
48813;SDS011;34634;44.108;3.074;2023-05-20T14:08:05;12.52;;;2.65;;
48813;SDS011;34634;44.108;3.074;2023-05-20T14:10:31;6.35;;;3.50;;
48813;SDS011;34634;44.108;3.074;2023-05-20T14:12:57;6.00;;;3.10;;
48813;SDS011;34634;44.108;3.074;2023-05-20T14:15:26;8.90;;;5.20;;
48813;SDS011;34634;44.108;3.074;2023-05-20T14:17:57;9.20;;;4.43;;
48813;SDS011;34634;44.108;3.074;2023-05-20T14:20:24;7.47;;;4.70;;
48813;SDS011;34634;44.108;3.074;2023-05-20T14:22:51;20.65;;;12.02;;
48813;SDS011;34634;44.108;3.074;2023-05-20T14:25:18;10.50;;;5.53;;
48813;SDS011;34634;44.108;3.074;2023-05-20T14:27:44;14.63;;;7.68;;
48813;SDS011;34634;44.108;3.074;2023-05-20T14:30:11;8.27;;;4.88;;
48813;SDS011;34634;44.108;3.074;2023-05-20T14:32:37;6.32;;;4.80;;
48813;SDS011;34634;44.108;3.074;2023-05-20T14:35:04;6.40;;;4.13;;
48813;SDS011;34634;44.108;3.074;2023-05-20T14:37:30;5.88;;;3.13;;
48813;SDS011;34634;44.108;3.074;2023-05-20T14:39:57;5.05;;;3.00;;
48813;SDS011;34634;44.108;3.074;2023-05-20T14:42:23;4.72;;;2.63;;
48813;SDS011;34634;44.108;3.074;2023-05-20T14:44:49;9.57;;;3.58;;
48813;SDS011;34634;44.108;3.074;2023-05-20T14:47:16;5.47;;;3.58;;
48813;SDS011;34634;44.108;3.074;2023-05-20T14:49:46;7.15;;;2.95;;
48813;SDS011;34634;44.108;3.074;2023-05-20T14:52:14;4.72;;;3.17;;
48813;SDS011;34634;44.108;3.074;2023-05-20T14:54:41;4.15;;;2.70;;
48813;SDS011;34634;44.108;3.074;2023-05-20T14:57:07;5.28;;;3.08;;
48813;SDS011;34634;44.108;3.074;2023-05-20T14:59:34;7.95;;;3.03;;
48813;SDS011;34634;44.108;3.074;2023-05-20T15:02:00;5.30;;;2.95;;
48813;SDS011;34634;44.108;3.074;2023-05-20T15:04:27;6.95;;;3.40;;